createdAt,value
2018-09-02T00:02:18.018Z,92.30
2018-09-02T00:04:52.293Z,92.40
2018-09-02T00:07:26.571Z,92.50
2018-09-02T00:10:00.897Z,92.60
2018-09-02T00:12:35.212Z,92.70
2018-09-02T00:15:09.546Z,92.60
2018-09-02T00:17:43.881Z,92.70
2018-09-02T00:20:18.214Z,92.70
2018-09-02T00:22:52.607Z,92.70
2018-09-02T00:25:27.010Z,92.80
2018-09-02T00:28:01.603Z,93.00
2018-09-02T00:30:35.809Z,92.90
2018-09-02T00:33:10.033Z,93.10
2018-09-02T00:35:44.395Z,93.20
2018-09-02T00:38:18.690Z,93.20
2018-09-02T00:40:52.977Z,93.40
2018-09-02T00:43:27.179Z,93.30
2018-09-02T00:46:01.466Z,93.30
2018-09-02T00:48:35.667Z,93.50
2018-09-02T00:51:09.962Z,93.50
2018-09-02T00:53:44.214Z,93.70
2018-09-02T00:56:18.369Z,93.60
2018-09-02T00:58:52.727Z,93.80
2018-09-02T01:01:26.862Z,93.90
2018-09-02T01:04:01.157Z,94.10
2018-09-02T01:06:35.341Z,93.90
2018-09-02T01:09:09.770Z,94.00
2018-09-02T01:11:43.947Z,94.00
2018-09-02T01:14:18.254Z,93.60
2018-09-02T01:16:52.810Z,93.80
2018-09-02T01:19:26.986Z,93.60
2018-09-02T01:22:01.300Z,93.60
2018-09-02T01:24:35.633Z,93.70
2018-09-02T01:27:09.962Z,93.60
2018-09-02T01:29:44.344Z,93.60
2018-09-02T01:32:18.623Z,93.90
2018-09-02T01:34:52.903Z,93.80
2018-09-02T01:37:27.311Z,94.00
2018-09-02T01:40:01.686Z,94.00
2018-09-02T01:42:35.941Z,93.90
2018-09-02T01:45:10.194Z,94.30
2018-09-02T01:47:44.526Z,94.30
2018-09-02T01:50:18.730Z,94.50
2018-09-02T01:52:52.962Z,94.70
2018-09-02T01:55:27.338Z,94.60
2018-09-02T01:58:01.665Z,94.70
2018-09-02T02:00:35.945Z,94.70
2018-09-02T02:03:10.210Z,94.70
2018-09-02T02:05:44.624Z,95.40
2018-09-02T02:08:19.069Z,95.50
2018-09-02T02:10:53.379Z,95.90
2018-09-02T02:13:27.626Z,95.60
2018-09-02T02:16:01.954Z,95.70
2018-09-02T02:18:36.191Z,95.70
2018-09-02T02:21:10.506Z,95.40
2018-09-02T02:23:44.841Z,95.60
2018-09-02T02:26:19.162Z,95.40
2018-09-02T02:28:53.439Z,95.40
2018-09-02T02:31:27.698Z,95.70
2018-09-02T02:34:02.043Z,95.60
2018-09-02T02:36:36.557Z,95.60
2018-09-02T02:39:11.822Z,95.80
2018-09-02T02:41:46.020Z,95.70
2018-09-02T02:44:20.303Z,95.60
2018-09-02T02:46:54.605Z,95.80
2018-09-02T02:49:28.931Z,96.00
2018-09-02T02:52:03.227Z,96.10
2018-09-02T02:54:37.511Z,96.00
2018-09-02T02:57:11.822Z,95.90
2018-09-02T02:59:46.119Z,96.00
2018-09-02T03:02:20.402Z,96.00
2018-09-02T03:04:54.697Z,96.10
2018-09-02T03:07:29.003Z,96.00
2018-09-02T03:10:03.310Z,96.20
2018-09-02T03:12:37.489Z,96.30
2018-09-02T03:15:11.788Z,97.00
2018-09-02T03:17:46.165Z,96.80
2018-09-02T03:20:20.555Z,96.50
2018-09-02T03:22:55.736Z,96.50
2018-09-02T03:25:30.018Z,96.30
2018-09-02T03:28:04.305Z,96.20
2018-09-02T03:30:38.638Z,96.50
2018-09-02T03:33:13.026Z,96.20
2018-09-02T03:35:47.256Z,96.20
2018-09-02T03:38:21.634Z,96.20
2018-09-02T03:40:55.809Z,96.20
2018-09-02T03:43:30.070Z,96.40
2018-09-02T03:46:04.563Z,96.20
2018-09-02T03:48:38.878Z,96.60
2018-09-02T03:51:13.043Z,96.80
2018-09-02T03:53:47.343Z,97.00
2018-09-02T03:56:21.555Z,96.90
2018-09-02T03:58:55.895Z,97.00
2018-09-02T04:01:30.030Z,97.40
2018-09-02T04:04:04.311Z,97.40
2018-09-02T04:06:38.617Z,97.40
2018-09-02T04:09:12.899Z,97.20
2018-09-02T04:11:47.181Z,97.00
2018-09-02T04:14:21.346Z,97.00
2018-09-02T04:16:55.609Z,96.90
2018-09-02T04:19:29.818Z,96.90
2018-09-02T04:22:04.042Z,96.70
2018-09-02T04:24:38.375Z,96.90
2018-09-02T04:27:12.798Z,96.80
2018-09-02T04:29:47.102Z,96.60
2018-09-02T04:32:21.500Z,97.20
2018-09-02T04:34:55.754Z,97.20
2018-09-02T04:37:30.081Z,97.30
2018-09-02T04:40:04.409Z,97.20
2018-09-02T04:42:38.717Z,97.10
2018-09-02T04:45:13.183Z,97.10
2018-09-02T04:47:47.436Z,97.20
2018-09-02T04:50:22.030Z,97.20
2018-09-02T04:52:56.226Z,97.30
2018-09-02T04:55:30.425Z,97.10
2018-09-02T04:58:04.779Z,97.40
2018-09-02T05:00:39.026Z,97.30
2018-09-02T05:03:13.358Z,97.30
2018-09-02T05:05:47.671Z,97.30
2018-09-02T05:08:22.104Z,97.40
2018-09-02T05:10:56.393Z,97.30
2018-09-02T05:13:30.549Z,97.20
2018-09-02T05:16:04.837Z,97.40
2018-09-02T05:18:39.134Z,97.60
2018-09-02T05:21:13.633Z,97.70
2018-09-02T05:23:47.895Z,98.10
2018-09-02T05:26:22.214Z,98.30
2018-09-02T05:28:56.344Z,98.30
2018-09-02T05:31:30.659Z,98.20
2018-09-02T05:34:04.842Z,98.20
2018-09-02T05:36:39.074Z,98.20
2018-09-02T05:39:13.394Z,98.20
2018-09-02T05:41:47.680Z,98.20
2018-09-02T05:44:21.850Z,98.30
2018-09-02T05:46:56.203Z,98.10
2018-09-02T05:49:30.489Z,98.30
2018-09-02T05:52:04.780Z,98.20
2018-09-02T05:54:39.058Z,98.10
2018-09-02T05:57:13.619Z,98.00
2018-09-02T05:59:47.951Z,98.20
2018-09-02T06:02:22.474Z,98.10
2018-09-02T06:04:56.726Z,98.00
2018-09-02T06:07:31.183Z,98.00
2018-09-02T06:10:05.887Z,98.10
2018-09-02T06:12:40.137Z,97.90
2018-09-02T06:15:14.448Z,97.80
2018-09-02T06:17:49.453Z,97.60
2018-09-02T06:20:23.811Z,98.10
2018-09-02T06:22:58.115Z,98.00
2018-09-02T06:25:32.483Z,98.20
2018-09-02T06:28:06.821Z,97.50
2018-09-02T06:30:40.938Z,97.20
2018-09-02T06:33:15.222Z,97.30
2018-09-02T06:35:49.626Z,97.30
2018-09-02T06:38:24.097Z,97.00
2018-09-02T06:40:58.287Z,96.70
2018-09-02T06:43:32.577Z,96.60
2018-09-02T06:46:06.923Z,96.70
2018-09-02T06:48:41.288Z,96.50
2018-09-02T06:51:15.623Z,96.50
2018-09-02T06:53:49.910Z,96.60
2018-09-02T06:56:24.090Z,96.60
2018-09-02T06:58:58.482Z,96.40
2018-09-02T07:01:32.762Z,96.30
2018-09-02T07:04:07.054Z,96.20
2018-09-02T07:06:41.435Z,95.80
2018-09-02T07:09:15.571Z,95.70
2018-09-02T07:11:49.977Z,95.70
2018-09-02T07:14:24.417Z,95.30
2018-09-02T07:16:58.683Z,95.10
2018-09-02T07:19:32.866Z,95.10
2018-09-02T07:22:07.173Z,94.90
2018-09-02T07:24:41.589Z,94.90
2018-09-02T07:27:15.870Z,94.60
2018-09-02T07:29:50.022Z,94.30
2018-09-02T07:32:24.369Z,94.50
2018-09-02T07:34:58.689Z,94.40
2018-09-02T07:37:32.982Z,93.90
2018-09-02T07:40:07.385Z,94.30
2018-09-02T07:42:41.674Z,93.90
2018-09-02T07:45:16.355Z,93.70
2018-09-02T07:47:50.562Z,93.70
2018-09-02T07:50:24.818Z,93.30
2018-09-02T07:52:59.211Z,93.60
2018-09-02T07:55:33.668Z,93.20
2018-09-02T07:58:08.022Z,92.80
2018-09-02T08:00:42.310Z,92.30
2018-09-02T08:03:16.693Z,92.30
2018-09-02T08:05:50.970Z,91.60
2018-09-02T08:08:25.366Z,91.30
2018-09-02T08:10:59.646Z,91.10
2018-09-02T08:13:33.923Z,90.90
2018-09-02T08:16:08.123Z,90.90
2018-09-02T08:18:42.442Z,90.40
2018-09-02T08:21:16.751Z,90.40
2018-09-02T08:23:50.902Z,90.00
2018-09-02T08:26:25.100Z,90.00
2018-09-02T08:28:59.474Z,90.20
2018-09-02T08:31:33.846Z,88.70
2018-09-02T08:34:08.001Z,88.40
2018-09-02T08:36:42.255Z,88.80
2018-09-02T08:39:16.758Z,87.00
2018-09-02T08:41:50.947Z,87.60
2018-09-02T08:44:25.267Z,86.90
2018-09-02T08:46:59.470Z,87.10
2018-09-02T08:49:33.855Z,86.00
2018-09-02T08:52:08.710Z,84.60
2018-09-02T08:54:42.946Z,83.50
2018-09-02T08:57:17.318Z,84.70
2018-09-02T08:59:51.622Z,83.90
2018-09-02T09:02:25.999Z,84.10
2018-09-02T09:05:00.630Z,82.80
2018-09-02T09:07:35.082Z,82.90
2018-09-02T09:10:09.322Z,81.40
2018-09-02T09:12:43.548Z,82.60
2018-09-02T09:15:17.780Z,83.10
2018-09-02T09:17:51.969Z,79.00
2018-09-02T09:20:26.499Z,79.00
2018-09-02T09:23:00.710Z,80.70
2018-09-02T09:25:34.986Z,80.20
2018-09-02T09:28:09.141Z,78.20
2018-09-02T09:30:43.403Z,77.40
2018-09-02T09:33:17.827Z,77.10
2018-09-02T09:35:51.990Z,76.00
2018-09-02T09:38:26.127Z,77.20
2018-09-02T09:41:00.342Z,76.00
2018-09-02T09:43:34.642Z,73.90
2018-09-02T09:46:09.033Z,76.00
2018-09-02T09:48:43.334Z,73.80
2018-09-02T09:51:17.643Z,73.00
2018-09-02T09:53:51.880Z,71.90
2018-09-02T09:56:26.155Z,73.10
2018-09-02T09:59:00.453Z,71.00
2018-09-02T10:01:34.694Z,71.30
2018-09-02T10:04:08.989Z,68.90
2018-09-02T10:06:43.237Z,69.60
2018-09-02T10:09:17.582Z,68.80
2018-09-02T10:11:51.955Z,67.90
2018-09-02T10:14:26.157Z,67.00
2018-09-02T10:17:00.474Z,65.60
2018-09-02T10:19:34.637Z,67.20
2018-09-02T10:22:09.413Z,64.30
2018-09-02T10:24:43.826Z,65.90
2018-09-02T10:27:18.256Z,65.00
2018-09-02T10:29:52.718Z,64.00
2018-09-02T10:32:27.533Z,65.50
2018-09-02T10:35:01.748Z,65.20
2018-09-02T10:37:36.111Z,62.90
2018-09-02T10:40:10.489Z,64.90
2018-09-02T10:42:44.810Z,62.80
2018-09-02T10:45:19.118Z,62.80
2018-09-02T10:47:53.383Z,63.90
2018-09-02T10:50:27.704Z,64.40
2018-09-02T10:53:01.918Z,62.10
2018-09-02T10:55:36.134Z,62.30
2018-09-02T10:58:10.499Z,61.70
2018-09-02T11:00:44.803Z,61.50
2018-09-02T11:03:19.188Z,64.80
2018-09-02T11:05:53.594Z,62.10
2018-09-02T11:08:27.835Z,61.70
2018-09-02T11:11:02.275Z,62.20
2018-09-02T11:13:36.807Z,62.20
2018-09-02T11:16:10.936Z,59.80
2018-09-02T11:18:45.199Z,57.90
2018-09-02T11:21:19.675Z,58.40
2018-09-02T11:23:53.834Z,57.70
2018-09-02T11:26:28.257Z,58.10
2018-09-02T11:29:02.719Z,57.30
2018-09-02T11:31:36.995Z,57.30
2018-09-02T11:34:11.305Z,55.80
2018-09-02T11:36:45.585Z,57.30
2018-09-02T11:39:19.936Z,58.50
2018-09-02T11:41:54.074Z,57.60
2018-09-02T11:44:28.385Z,55.00
2018-09-02T11:47:02.795Z,55.80
2018-09-02T11:49:37.090Z,56.30
2018-09-02T11:52:11.335Z,55.20
2018-09-02T11:54:45.554Z,53.20
2018-09-02T11:57:20.345Z,53.60
2018-09-02T11:59:54.619Z,54.00
2018-09-02T12:02:29.884Z,54.30
2018-09-02T12:05:04.306Z,53.10
2018-09-02T12:07:38.634Z,52.70
2018-09-02T12:10:12.975Z,51.00
2018-09-02T12:12:47.304Z,52.60
2018-09-02T12:15:21.452Z,51.80
2018-09-02T12:17:55.810Z,52.50
2018-09-02T12:20:30.230Z,51.70
2018-09-02T12:23:04.554Z,50.70
2018-09-02T12:25:39.025Z,50.80
2018-09-02T12:28:13.303Z,50.10
2018-09-02T12:30:47.598Z,50.30
2018-09-02T12:33:21.911Z,48.90
2018-09-02T12:35:56.182Z,48.60
2018-09-02T12:38:30.470Z,50.00
2018-09-02T12:41:04.906Z,50.00
2018-09-02T12:43:39.161Z,48.50
2018-09-02T12:46:13.660Z,49.20
2018-09-02T12:48:47.895Z,49.20
2018-09-02T12:51:22.156Z,49.80
2018-09-02T12:53:56.495Z,49.20
2018-09-02T12:56:30.673Z,48.20
2018-09-02T12:59:05.006Z,48.90
2018-09-02T13:01:39.346Z,47.40
2018-09-02T13:04:13.742Z,48.90
2018-09-02T13:06:47.993Z,46.90
2018-09-02T13:09:22.234Z,49.40
2018-09-02T13:11:56.554Z,49.00
2018-09-02T13:14:31.017Z,49.00
2018-09-02T13:17:05.237Z,49.30
2018-09-02T13:19:39.611Z,48.60
2018-09-02T13:22:13.889Z,50.00
2018-09-02T13:24:48.195Z,50.80
2018-09-02T13:27:22.521Z,50.00
2018-09-02T13:29:56.698Z,50.70
2018-09-02T13:32:30.983Z,51.40
2018-09-02T13:35:05.622Z,50.40
2018-09-02T13:37:39.802Z,51.40
2018-09-02T13:40:14.207Z,51.80
2018-09-02T13:42:48.534Z,51.40
2018-09-02T13:45:22.858Z,51.40
2018-09-02T13:47:57.218Z,52.00
2018-09-02T13:50:31.487Z,52.50
2018-09-02T13:53:05.705Z,52.90
2018-09-02T13:55:39.959Z,53.00
2018-09-02T13:58:14.198Z,52.90
2018-09-02T14:00:48.648Z,53.40
2018-09-02T14:03:22.916Z,54.20
2018-09-02T14:05:57.106Z,53.70
2018-09-02T14:08:31.527Z,53.60
2018-09-02T14:11:05.894Z,53.00
2018-09-02T14:13:40.318Z,51.80
2018-09-02T14:16:14.611Z,52.00
2018-09-02T14:18:49.027Z,51.30
2018-09-02T14:21:23.339Z,49.40
2018-09-02T14:23:57.715Z,51.20
2018-09-02T14:26:32.072Z,51.20
2018-09-02T14:29:06.462Z,51.50
2018-09-02T14:31:40.644Z,50.10
2018-09-02T14:34:14.959Z,51.70
2018-09-02T14:36:49.247Z,51.70
2018-09-02T14:39:23.373Z,52.00
2018-09-02T14:41:57.611Z,52.00
2018-09-02T14:44:31.929Z,52.50
2018-09-02T14:47:06.406Z,52.80
2018-09-02T14:49:40.654Z,52.90
2018-09-02T14:52:14.806Z,53.20
2018-09-02T14:54:49.038Z,53.40
2018-09-02T14:57:23.401Z,53.10
2018-09-02T14:59:57.735Z,53.50
2018-09-02T15:02:32.047Z,54.20
2018-09-02T15:05:06.518Z,54.00
2018-09-02T15:07:40.842Z,54.70
2018-09-02T15:10:15.226Z,54.40
2018-09-02T15:12:49.542Z,54.10
2018-09-02T15:15:23.686Z,53.90
2018-09-02T15:17:58.017Z,53.70
2018-09-02T15:20:32.325Z,55.00
2018-09-02T15:23:06.755Z,55.10
2018-09-02T15:25:41.047Z,55.10
2018-09-02T15:28:15.178Z,55.50
2018-09-02T15:30:49.417Z,55.60
2018-09-02T15:33:23.850Z,55.60
2018-09-02T15:35:58.094Z,55.50
2018-09-02T15:38:32.398Z,55.70
2018-09-02T15:41:06.755Z,55.70
2018-09-02T15:43:40.902Z,56.20
2018-09-02T15:46:15.326Z,56.40
2018-09-02T15:48:49.750Z,56.10
2018-09-02T15:51:24.083Z,56.00
2018-09-02T15:53:58.343Z,56.40
2018-09-02T15:56:32.662Z,56.50
2018-09-02T15:59:06.925Z,56.10
2018-09-02T16:01:41.521Z,57.30
2018-09-02T16:04:15.817Z,57.20
2018-09-02T16:06:50.146Z,56.80
2018-09-02T16:09:24.433Z,56.40
2018-09-02T16:11:58.660Z,56.50
2018-09-02T16:14:32.913Z,56.80
2018-09-02T16:17:07.286Z,56.80
2018-09-02T16:19:41.515Z,56.60
2018-09-02T16:22:15.942Z,57.30
2018-09-02T16:24:50.299Z,56.90
2018-09-02T16:27:24.601Z,57.10
2018-09-02T16:29:58.738Z,56.60
2018-09-02T16:32:33.925Z,57.10
2018-09-02T16:35:08.294Z,57.00
2018-09-02T16:37:42.658Z,57.30
2018-09-02T16:40:16.927Z,57.80
2018-09-02T16:42:51.240Z,57.40
2018-09-02T16:45:25.499Z,58.10
2018-09-02T16:47:59.725Z,57.90
2018-09-02T16:50:34.072Z,57.50
2018-09-02T16:53:08.283Z,58.10
2018-09-02T16:55:42.775Z,58.10
2018-09-02T16:58:17.042Z,57.90
2018-09-02T17:00:51.336Z,59.20
2018-09-02T17:03:29.996Z,58.50
2018-09-02T17:06:04.250Z,58.80
2018-09-02T17:08:38.445Z,59.00
2018-09-02T17:11:12.722Z,59.30
2018-09-02T17:13:46.877Z,59.70
2018-09-02T17:16:21.197Z,59.90
2018-09-02T17:18:59.285Z,60.30
2018-09-02T17:21:33.542Z,61.20
2018-09-02T17:24:07.938Z,61.50
2018-09-02T17:26:42.319Z,61.60
2018-09-02T17:29:16.674Z,62.20
2018-09-02T17:31:50.974Z,62.00
2018-09-02T17:34:25.310Z,61.90
2018-09-02T17:36:59.606Z,63.00
2018-09-02T17:39:33.894Z,63.30
2018-09-02T17:42:08.178Z,63.50
2018-09-02T17:44:42.415Z,63.10
2018-09-02T17:47:16.679Z,64.00
2018-09-02T17:49:51.058Z,63.90
2018-09-02T17:52:25.510Z,64.40
2018-09-02T17:54:59.797Z,64.40
2018-09-02T17:57:34.070Z,64.80
2018-09-02T18:00:08.578Z,65.30
2018-09-02T18:02:42.808Z,65.30
2018-09-02T18:05:17.209Z,65.30
2018-09-02T18:07:51.511Z,66.00
2018-09-02T18:10:25.926Z,66.80
2018-09-02T18:13:00.222Z,66.80
2018-09-02T18:15:34.593Z,66.10
2018-09-02T18:18:08.806Z,66.60
2018-09-02T18:20:42.999Z,66.60
2018-09-02T18:23:17.304Z,67.20
2018-09-02T18:25:51.710Z,66.80
2018-09-02T18:28:30.458Z,67.00
2018-09-02T18:31:04.782Z,67.10
2018-09-02T18:33:39.007Z,66.80
2018-09-02T18:36:13.349Z,67.10
2018-09-02T18:38:47.615Z,67.40
2018-09-02T18:41:21.918Z,67.50
2018-09-02T18:43:56.306Z,67.80
2018-09-02T18:46:30.695Z,67.80
2018-09-02T18:49:05.538Z,68.00
2018-09-02T18:51:39.699Z,68.00
2018-09-02T18:54:13.884Z,68.20
2018-09-02T18:56:47.989Z,69.10
2018-09-02T18:59:22.151Z,68.40
2018-09-02T19:01:56.603Z,68.50
2018-09-02T19:04:30.802Z,68.60
2018-09-02T19:07:05.653Z,69.50
2018-09-02T19:09:39.998Z,69.50
2018-09-02T19:12:14.370Z,69.60
2018-09-02T19:14:48.671Z,70.20
2018-09-02T19:17:22.908Z,69.50
2018-09-02T19:19:57.150Z,69.40
2018-09-02T19:22:31.445Z,70.10
2018-09-02T19:25:06.018Z,72.40
2018-09-02T19:27:40.262Z,71.90
2018-09-02T19:30:14.541Z,73.50
2018-09-02T19:32:48.785Z,72.90
2018-09-02T19:35:23.135Z,73.70
2018-09-02T19:37:57.423Z,74.10
2018-09-02T19:40:31.849Z,73.20
2018-09-02T19:43:06.164Z,73.70
2018-09-02T19:45:40.482Z,74.80
2018-09-02T19:48:14.819Z,75.60
2018-09-02T19:50:49.214Z,76.50
2018-09-02T19:53:23.394Z,76.10
2018-09-02T19:55:57.778Z,76.40
2018-09-02T19:58:32.262Z,76.30
2018-09-02T20:01:06.483Z,76.60
2018-09-02T20:03:40.755Z,77.40
2018-09-02T20:06:15.022Z,77.20
2018-09-02T20:08:49.479Z,77.50
2018-09-02T20:11:23.697Z,77.30
2018-09-02T20:13:58.058Z,78.00
2018-09-02T20:16:32.202Z,78.10
2018-09-02T20:19:06.563Z,78.00
2018-09-02T20:21:40.909Z,78.00
2018-09-02T20:24:15.077Z,78.20
2018-09-02T20:26:49.436Z,78.40
2018-09-02T20:29:23.823Z,78.70
2018-09-02T20:31:58.125Z,78.40
2018-09-02T20:34:32.367Z,78.60
2018-09-02T20:37:06.699Z,78.90
2018-09-02T20:39:41.007Z,79.10
2018-09-02T20:42:15.354Z,79.20
2018-09-02T20:44:49.573Z,79.50
2018-09-02T20:47:23.896Z,80.00
2018-09-02T20:49:58.167Z,80.00
2018-09-02T20:52:32.478Z,80.40
2018-09-02T20:55:06.801Z,79.80
2018-09-02T20:57:40.969Z,80.50
2018-09-02T21:00:15.358Z,79.90
2018-09-02T21:02:49.777Z,80.30
2018-09-02T21:05:23.943Z,80.40
2018-09-02T21:07:58.269Z,80.00
2018-09-02T21:10:32.559Z,79.60
2018-09-02T21:13:06.814Z,80.00
2018-09-02T21:15:41.135Z,79.60
2018-09-02T21:18:15.601Z,79.20
2018-09-02T21:20:49.902Z,79.30
2018-09-02T21:23:24.047Z,79.10
2018-09-02T21:25:58.396Z,78.90
2018-09-02T21:28:32.644Z,80.20
2018-09-02T21:31:06.806Z,79.40
2018-09-02T21:33:41.102Z,78.80
2018-09-02T21:36:15.285Z,78.10
2018-09-02T21:38:49.475Z,78.10
2018-09-02T21:41:23.692Z,77.70
2018-09-02T21:43:58.111Z,77.70
2018-09-02T21:46:32.337Z,77.80
2018-09-02T21:49:06.686Z,78.00
2018-09-02T21:51:40.973Z,78.30
2018-09-02T21:54:15.282Z,78.50
2018-09-02T21:56:49.562Z,78.70
2018-09-02T21:59:23.901Z,78.50
2018-09-02T22:01:58.235Z,78.90
2018-09-02T22:04:32.534Z,78.60
2018-09-02T22:07:06.869Z,78.90
2018-09-02T22:09:41.070Z,78.70
2018-09-02T22:12:15.370Z,78.50
2018-09-02T22:14:49.666Z,78.80
2018-09-02T22:17:23.970Z,78.90
2018-09-02T22:19:58.195Z,79.20
2018-09-02T22:22:32.521Z,79.40
2018-09-02T22:25:07.701Z,79.30
2018-09-02T22:27:41.882Z,79.60
2018-09-02T22:30:16.122Z,80.00
2018-09-02T22:32:50.522Z,80.10
2018-09-02T22:35:24.827Z,80.60
2018-09-02T22:37:59.249Z,81.00
2018-09-02T22:40:33.495Z,80.80
2018-09-02T22:43:07.978Z,81.10
2018-09-02T22:45:42.186Z,81.10
2018-09-02T22:48:16.411Z,80.80
2018-09-02T22:50:50.658Z,80.90
2018-09-02T22:53:25.005Z,81.10
2018-09-02T22:55:59.378Z,81.40
2018-09-02T22:58:33.578Z,81.60
2018-09-02T23:01:07.854Z,81.60
2018-09-02T23:03:42.165Z,81.70
2018-09-02T23:06:16.470Z,82.30
2018-09-02T23:08:50.775Z,82.70
2018-09-02T23:11:25.070Z,83.00
2018-09-02T23:13:59.366Z,83.50
2018-09-02T23:16:34.368Z,83.40
2018-09-02T23:19:08.724Z,83.50
2018-09-02T23:21:43.014Z,83.50
2018-09-02T23:24:17.349Z,84.50
2018-09-02T23:26:51.646Z,84.90
2018-09-02T23:29:25.929Z,85.20
2018-09-02T23:32:00.131Z,85.30
2018-09-02T23:34:34.594Z,85.60
2018-09-02T23:37:08.917Z,86.10
2018-09-02T23:39:43.245Z,86.50
2018-09-02T23:42:17.529Z,86.90
2018-09-02T23:44:51.818Z,87.30
2018-09-02T23:47:25.963Z,87.40
2018-09-02T23:50:00.210Z,87.70
2018-09-02T23:52:34.523Z,87.70
2018-09-02T23:55:08.723Z,88.20
2018-09-02T23:57:42.925Z,88.30
